createdAt,value
2023-12-02T00:00:00.344Z,24.20
2023-12-02T00:02:28.423Z,24.17
2023-12-02T00:04:56.683Z,23.00
2023-12-02T00:07:27.119Z,25.83
2023-12-02T00:09:57.685Z,20.97
2023-12-02T00:12:28.362Z,25.00
2023-12-02T00:14:58.163Z,26.43
2023-12-02T00:17:26.332Z,25.13
2023-12-02T00:19:54.681Z,21.67
2023-12-02T00:22:22.749Z,21.73
2023-12-02T00:24:50.887Z,24.33
2023-12-02T00:27:20.427Z,24.00
2023-12-02T00:29:48.496Z,22.50
2023-12-02T00:32:28.237Z,23.37
2023-12-02T00:34:59.251Z,24.07
2023-12-02T00:37:27.352Z,23.17
2023-12-02T00:39:55.446Z,22.70
2023-12-02T00:42:23.907Z,20.77
2023-12-02T00:44:52.048Z,22.83
2023-12-02T00:47:21.502Z,18.53
2023-12-02T00:49:50.074Z,19.17
2023-12-02T00:52:18.517Z,19.27
2023-12-02T00:54:47.141Z,17.57
2023-12-02T00:57:15.528Z,23.17
2023-12-02T00:59:43.734Z,22.40
2023-12-02T01:02:13.192Z,19.27
2023-12-02T01:04:42.727Z,18.10
2023-12-02T01:07:12.023Z,19.97
2023-12-02T01:09:40.016Z,18.73
2023-12-02T01:12:08.919Z,17.53
2023-12-02T01:14:37.173Z,16.70
2023-12-02T01:17:05.755Z,15.83
2023-12-02T01:19:35.427Z,16.63
2023-12-02T01:22:05.552Z,17.17
2023-12-02T01:24:33.673Z,18.10
2023-12-02T01:27:01.832Z,17.87
2023-12-02T01:29:29.855Z,19.17
2023-12-02T01:31:57.902Z,17.23
2023-12-02T01:34:26.356Z,17.23
2023-12-02T01:36:54.677Z,18.73
2023-12-02T01:39:24.084Z,18.83
2023-12-02T01:41:52.160Z,19.63
2023-12-02T01:44:20.163Z,18.13
2023-12-02T01:46:48.472Z,20.13
2023-12-02T01:49:16.966Z,22.90
2023-12-02T01:51:45.347Z,20.17
2023-12-02T01:54:13.549Z,22.07
2023-12-02T01:56:43.410Z,22.43
2023-12-02T01:59:27.792Z,21.10
2023-12-02T02:01:56.884Z,20.13
2023-12-02T02:04:25.496Z,20.37
2023-12-02T02:06:54.029Z,20.20
2023-12-02T02:09:23.715Z,19.00
2023-12-02T02:11:54.497Z,22.13
2023-12-02T02:14:22.603Z,19.70
2023-12-02T02:16:50.974Z,23.63
2023-12-02T02:19:20.815Z,20.53
2023-12-02T02:21:54.208Z,22.67
2023-12-02T02:24:22.512Z,23.67
2023-12-02T02:26:50.876Z,21.87
2023-12-02T02:29:19.924Z,22.70
2023-12-02T02:31:48.340Z,22.10
2023-12-02T02:34:17.654Z,23.03
2023-12-02T02:36:46.204Z,20.80
2023-12-02T02:39:15.893Z,21.80
2023-12-02T02:41:43.994Z,21.93
2023-12-02T02:44:12.208Z,21.93
2023-12-02T02:46:40.696Z,19.57
2023-12-02T02:49:08.911Z,22.03
2023-12-02T02:51:37.340Z,22.40
2023-12-02T02:54:05.549Z,25.33
2023-12-02T02:56:36.099Z,23.13
2023-12-02T02:59:04.440Z,24.90
2023-12-02T03:01:32.502Z,25.37
2023-12-02T03:04:01.731Z,23.73
2023-12-02T03:06:30.075Z,23.80
2023-12-02T03:08:58.297Z,23.50
2023-12-02T03:11:26.951Z,22.17
2023-12-02T03:13:56.718Z,24.43
2023-12-02T03:16:24.872Z,24.57
2023-12-02T03:18:53.087Z,23.23
2023-12-02T03:21:21.471Z,23.57
2023-12-02T03:23:51.706Z,19.63
2023-12-02T03:26:20.226Z,19.37
2023-12-02T03:28:49.085Z,21.33
2023-12-02T03:31:18.852Z,20.77
2023-12-02T03:33:47.938Z,20.90
2023-12-02T03:36:16.077Z,18.00
2023-12-02T03:38:44.383Z,20.83
2023-12-02T03:41:12.800Z,19.13
2023-12-02T03:43:51.996Z,21.97
2023-12-02T03:46:29.772Z,19.20
2023-12-02T03:48:58.053Z,18.70
2023-12-02T03:51:26.891Z,16.97
2023-12-02T03:53:55.104Z,18.43
2023-12-02T03:56:23.369Z,17.60
2023-12-02T03:58:51.962Z,17.00
2023-12-02T04:01:20.659Z,19.97
2023-12-02T04:03:50.629Z,15.90
2023-12-02T04:06:19.388Z,15.37
2023-12-02T04:08:47.437Z,17.63
2023-12-02T04:11:15.908Z,16.73
2023-12-02T04:13:44.008Z,15.77
2023-12-02T04:16:12.470Z,15.40
2023-12-02T04:18:44.294Z,17.67
2023-12-02T04:21:13.949Z,17.83
2023-12-02T04:23:41.981Z,16.50
2023-12-02T04:26:11.511Z,15.57
2023-12-02T04:28:39.738Z,16.73
2023-12-02T04:31:08.497Z,25.67
2023-12-02T04:33:36.710Z,18.83
2023-12-02T04:36:09.274Z,15.27
2023-12-02T04:38:38.844Z,17.23
2023-12-02T04:41:07.573Z,15.50
2023-12-02T04:43:35.781Z,16.00
2023-12-02T04:46:03.821Z,15.83
2023-12-02T04:48:32.165Z,15.60
2023-12-02T04:51:00.224Z,18.07
2023-12-02T04:53:28.292Z,16.27
2023-12-02T04:55:57.825Z,15.00
2023-12-02T04:58:25.799Z,16.20
2023-12-02T05:00:54.390Z,16.67
2023-12-02T05:03:22.831Z,16.43
2023-12-02T05:05:50.977Z,14.47
2023-12-02T05:08:20.089Z,12.77
2023-12-02T05:10:48.665Z,13.63
2023-12-02T05:13:18.418Z,12.97
2023-12-02T05:15:46.582Z,15.87
2023-12-02T05:18:15.177Z,11.70
2023-12-02T05:20:43.712Z,12.50
2023-12-02T05:23:11.873Z,14.57
2023-12-02T05:25:40.032Z,13.60
2023-12-02T05:28:08.515Z,12.87
2023-12-02T05:30:39.009Z,14.13
2023-12-02T05:33:07.327Z,12.37
2023-12-02T05:35:41.186Z,12.20
2023-12-02T05:38:09.794Z,12.60
2023-12-02T05:40:37.998Z,13.10
2023-12-02T05:43:06.543Z,12.57
2023-12-02T05:45:35.089Z,14.63
2023-12-02T05:48:04.838Z,14.57
2023-12-02T05:50:34.785Z,14.80
2023-12-02T05:53:05.829Z,16.83
2023-12-02T05:55:34.105Z,15.10
2023-12-02T05:58:02.131Z,13.00
2023-12-02T06:00:31.760Z,15.27
2023-12-02T06:02:59.916Z,13.07
2023-12-02T06:05:29.858Z,12.93
2023-12-02T06:07:57.958Z,13.37
2023-12-02T06:10:27.943Z,11.70
2023-12-02T06:12:56.019Z,11.57
2023-12-02T06:15:24.623Z,10.80
2023-12-02T06:17:57.611Z,11.17
2023-12-02T06:20:27.445Z,11.07
2023-12-02T06:22:57.112Z,10.50
2023-12-02T06:25:25.967Z,10.60
2023-12-02T06:27:54.234Z,11.63
2023-12-02T06:30:22.370Z,10.70
2023-12-02T06:32:50.441Z,13.53
2023-12-02T06:35:18.650Z,10.07
2023-12-02T06:37:47.087Z,11.53
2023-12-02T06:40:17.063Z,9.90
2023-12-02T06:42:45.629Z,11.37
2023-12-02T06:45:14.581Z,10.90
2023-12-02T06:47:42.753Z,11.13
2023-12-02T06:50:12.347Z,11.00
2023-12-02T06:52:40.749Z,11.17
2023-12-02T06:57:44.029Z,10.20
2023-12-02T07:00:15.022Z,8.80
2023-12-02T07:02:44.033Z,11.67
2023-12-02T07:05:12.095Z,10.47
2023-12-02T07:07:40.664Z,12.23
2023-12-02T07:10:10.600Z,11.33
2023-12-02T07:12:38.727Z,11.27
2023-12-02T07:15:12.720Z,10.80
2023-12-02T07:17:40.815Z,11.80
2023-12-02T07:20:10.593Z,12.40
2023-12-02T07:22:38.892Z,11.00
2023-12-02T07:25:07.867Z,10.43
2023-12-02T07:27:36.134Z,10.77
2023-12-02T07:32:38.490Z,16.77
2023-12-02T07:35:08.776Z,10.80
2023-12-02T07:37:37.141Z,11.50
2023-12-02T07:40:06.596Z,9.50
2023-12-02T07:42:34.784Z,10.50
2023-12-02T07:45:03.780Z,10.10
2023-12-02T07:47:31.857Z,10.87
2023-12-02T07:50:01.453Z,10.40
2023-12-02T07:52:29.581Z,12.50
2023-12-02T07:54:57.998Z,10.80
2023-12-02T07:57:26.109Z,10.13
2023-12-02T07:59:54.249Z,10.13
2023-12-02T08:02:22.567Z,9.27
2023-12-02T08:07:26.207Z,8.70
2023-12-02T08:09:56.095Z,9.97
2023-12-02T08:12:26.219Z,9.57
2023-12-02T08:14:55.654Z,8.67
2023-12-02T08:17:23.701Z,10.07
2023-12-02T08:19:52.017Z,9.40
2023-12-02T08:22:25.916Z,8.53
2023-12-02T08:24:55.987Z,9.27
2023-12-02T08:27:24.274Z,8.17
2023-12-02T08:29:52.892Z,10.13
2023-12-02T08:32:21.038Z,8.70
2023-12-02T08:34:50.701Z,8.27
2023-12-02T08:37:18.850Z,9.50
2023-12-02T08:39:47.111Z,11.57
2023-12-02T08:42:16.783Z,10.10
2023-12-02T08:44:44.856Z,11.13
2023-12-02T08:47:12.941Z,9.10
2023-12-02T08:49:41.144Z,9.57
2023-12-02T08:52:09.550Z,8.83
2023-12-02T08:54:37.957Z,7.63
2023-12-02T08:57:06.530Z,8.50
2023-12-02T08:59:36.601Z,7.27
2023-12-02T09:02:06.824Z,6.83
2023-12-02T09:04:35.324Z,9.53
2023-12-02T09:07:03.413Z,8.20
2023-12-02T09:09:35.765Z,6.43
2023-12-02T09:12:03.899Z,6.43
2023-12-02T09:14:36.953Z,7.53
2023-12-02T09:17:58.877Z,6.40
2023-12-02T09:20:40.494Z,7.30
2023-12-02T09:23:08.856Z,6.83
2023-12-02T09:25:39.684Z,6.23
2023-12-02T09:28:28.030Z,6.10
2023-12-02T09:31:07.873Z,6.37
2023-12-02T09:33:39.114Z,6.47
2023-12-02T09:36:08.675Z,6.73
2023-12-02T09:38:37.110Z,6.17
2023-12-02T09:41:26.016Z,6.40
2023-12-02T09:44:22.672Z,8.20
2023-12-02T09:47:04.619Z,7.13
2023-12-02T09:50:10.764Z,6.20
2023-12-02T09:52:50.658Z,6.40
2023-12-02T09:55:27.272Z,7.10
2023-12-02T09:58:02.734Z,7.23
2023-12-02T10:00:45.433Z,6.30
2023-12-02T10:03:33.961Z,6.20
2023-12-02T10:06:12.605Z,6.90
2023-12-02T10:08:54.547Z,7.60
2023-12-02T10:11:31.844Z,6.80
2023-12-02T10:14:02.432Z,7.10
2023-12-02T10:16:36.847Z,7.30
2023-12-02T10:19:09.511Z,7.10
2023-12-02T10:21:39.270Z,7.87
2023-12-02T10:24:12.138Z,7.57
2023-12-02T10:26:50.005Z,7.87
2023-12-02T10:29:23.798Z,9.97
2023-12-02T10:32:05.538Z,9.10
2023-12-02T10:34:44.115Z,9.53
2023-12-02T10:37:15.373Z,9.90
2023-12-02T10:39:45.090Z,9.30
2023-12-02T10:42:22.428Z,9.20
2023-12-02T10:44:57.702Z,10.63
2023-12-02T10:47:26.640Z,10.07
2023-12-02T10:49:57.293Z,9.80
2023-12-02T10:55:00.824Z,9.07
2023-12-02T10:57:30.206Z,8.83
2023-12-02T11:00:08.043Z,7.90
2023-12-02T11:02:43.966Z,8.67
2023-12-02T11:05:23.148Z,8.63
2023-12-02T11:07:54.924Z,8.60
2023-12-02T11:10:35.125Z,8.63
2023-12-02T11:13:08.468Z,8.90
2023-12-02T11:15:48.777Z,10.03
2023-12-02T11:18:25.566Z,8.87
2023-12-02T11:21:04.115Z,8.20
2023-12-02T11:23:55.048Z,9.23
2023-12-02T11:26:32.547Z,8.90
2023-12-02T11:29:19.104Z,8.37
2023-12-02T11:32:06.593Z,7.57
2023-12-02T11:34:49.299Z,7.30
2023-12-02T11:37:29.132Z,8.17
2023-12-02T11:40:06.829Z,7.83
2023-12-02T11:42:43.971Z,7.20
2023-12-02T11:45:19.763Z,7.40
2023-12-02T11:48:05.704Z,7.30
2023-12-02T11:50:44.544Z,8.00
2023-12-02T11:53:44.348Z,7.20
2023-12-02T11:56:14.385Z,7.60
2023-12-02T11:58:54.316Z,8.30
2023-12-02T12:01:52.213Z,8.17
2023-12-02T12:04:49.321Z,7.40
2023-12-02T12:07:31.776Z,7.40
2023-12-02T12:10:09.424Z,5.67
2023-12-02T12:12:41.485Z,7.83
2023-12-02T12:15:10.244Z,8.10
2023-12-02T12:17:39.451Z,7.43
2023-12-02T12:20:18.681Z,8.53
2023-12-02T12:22:47.075Z,7.10
2023-12-02T12:25:16.600Z,6.17
2023-12-02T12:27:45.386Z,7.13
2023-12-02T12:30:14.076Z,6.60
2023-12-02T12:32:42.225Z,6.37
2023-12-02T12:35:12.838Z,7.77
2023-12-02T12:37:43.188Z,8.03
2023-12-02T12:40:11.713Z,6.73
2023-12-02T12:42:49.015Z,7.03
2023-12-02T12:45:19.280Z,6.80
2023-12-02T12:47:47.693Z,9.40
2023-12-02T12:50:23.351Z,10.40
2023-12-02T12:52:53.694Z,7.10
2023-12-02T12:55:24.206Z,8.00
2023-12-02T12:57:59.500Z,6.57
2023-12-02T13:00:30.281Z,6.00
2023-12-02T13:03:22.107Z,7.07
2023-12-02T13:06:00.256Z,7.07
2023-12-02T13:08:34.737Z,6.03
2023-12-02T13:11:18.642Z,6.73
2023-12-02T13:13:59.099Z,6.93
2023-12-02T13:16:30.113Z,7.37
2023-12-02T13:19:01.903Z,6.87
2023-12-02T13:21:32.405Z,7.17
2023-12-02T13:24:04.889Z,7.27
2023-12-02T13:26:35.734Z,7.20
2023-12-02T13:29:07.283Z,7.53
2023-12-02T13:31:39.981Z,7.20
2023-12-02T13:34:16.839Z,5.90
2023-12-02T13:36:48.597Z,6.80
2023-12-02T13:39:27.980Z,7.43
2023-12-02T13:41:57.446Z,7.90
2023-12-02T13:44:32.190Z,7.10
2023-12-02T13:47:09.652Z,7.07
2023-12-02T13:49:43.909Z,6.93
2023-12-02T13:52:24.381Z,7.10
2023-12-02T13:55:21.676Z,8.17
2023-12-02T13:58:04.689Z,6.50
2023-12-02T14:00:44.702Z,5.97
2023-12-02T14:03:40.258Z,7.90
2023-12-02T14:06:14.145Z,6.13
2023-12-02T14:08:43.478Z,6.60
2023-12-02T14:11:24.535Z,6.60
2023-12-02T14:14:03.647Z,5.80
2023-12-02T14:16:46.428Z,6.70
2023-12-02T14:19:40.155Z,6.07
2023-12-02T14:22:27.228Z,6.40
2023-12-02T14:25:30.730Z,8.90
2023-12-02T14:28:16.751Z,6.80
2023-12-02T14:31:08.740Z,8.00
2023-12-02T14:34:01.709Z,6.07
2023-12-02T14:36:54.213Z,6.30
2023-12-02T14:39:50.415Z,6.33
2023-12-02T14:42:29.440Z,6.87
2023-12-02T14:44:59.465Z,8.77
2023-12-02T14:47:28.709Z,6.63
2023-12-02T14:49:58.787Z,6.47
2023-12-02T14:52:28.822Z,6.43
2023-12-02T14:54:58.380Z,6.47
2023-12-02T14:57:30.442Z,6.87
2023-12-02T15:00:02.248Z,7.07
2023-12-02T15:02:38.128Z,7.10
2023-12-02T15:05:09.882Z,5.87
2023-12-02T15:07:44.241Z,6.10
2023-12-02T15:10:19.515Z,6.30
2023-12-02T15:12:56.716Z,6.23
2023-12-02T15:15:38.959Z,6.47
2023-12-02T15:18:08.939Z,5.70
2023-12-02T15:20:38.444Z,5.57
2023-12-02T15:23:39.027Z,5.80
2023-12-02T15:26:12.933Z,5.73
2023-12-02T15:28:52.157Z,5.10
2023-12-02T15:31:28.296Z,4.80
2023-12-02T15:34:01.211Z,5.83
2023-12-02T15:36:34.261Z,5.37
2023-12-02T15:39:05.273Z,5.97
2023-12-02T15:41:33.469Z,7.47
2023-12-02T15:44:02.187Z,5.63
2023-12-02T15:46:30.597Z,6.17
2023-12-02T15:49:00.233Z,5.77
2023-12-02T15:51:31.735Z,7.37
2023-12-02T15:54:04.873Z,6.03
2023-12-02T15:56:34.421Z,6.50
2023-12-02T15:59:02.717Z,5.70
2023-12-02T16:01:32.136Z,5.20
2023-12-02T16:04:01.661Z,6.00
2023-12-02T16:06:34.857Z,6.47
2023-12-02T16:09:04.389Z,5.90
2023-12-02T16:11:37.261Z,6.10
2023-12-02T16:14:06.746Z,6.50
2023-12-02T16:16:36.277Z,6.40
2023-12-02T16:19:06.212Z,6.27
2023-12-02T16:21:36.435Z,5.87
2023-12-02T16:24:06.864Z,6.27
2023-12-02T16:26:37.164Z,6.43
2023-12-02T16:29:06.561Z,6.70
2023-12-02T16:31:37.667Z,6.43
2023-12-02T16:34:06.164Z,6.27
2023-12-02T16:36:38.331Z,7.80
2023-12-02T16:39:11.852Z,7.10
2023-12-02T16:41:40.081Z,8.47
2023-12-02T16:44:09.767Z,7.47
2023-12-02T16:46:41.932Z,9.17
2023-12-02T16:49:16.554Z,6.63
2023-12-02T16:51:46.668Z,7.43
2023-12-02T16:54:15.967Z,6.93
2023-12-02T16:56:44.936Z,55.20
2023-12-02T16:59:39.699Z,37.17
2023-12-02T17:02:27.583Z,10.87
2023-12-02T17:04:56.327Z,8.90
2023-12-02T17:07:26.074Z,7.23
2023-12-02T17:09:55.320Z,7.93
2023-12-02T17:12:23.951Z,7.93
2023-12-02T17:14:52.554Z,8.00
2023-12-02T17:17:24.701Z,7.83
2023-12-02T17:19:53.014Z,7.93
2023-12-02T17:22:23.328Z,7.77
2023-12-02T17:24:53.266Z,7.30
2023-12-02T17:27:42.246Z,7.80
2023-12-02T17:30:15.819Z,8.47
2023-12-02T17:32:44.416Z,12.77
2023-12-02T17:35:14.176Z,11.33
2023-12-02T17:37:43.889Z,10.27
2023-12-02T17:40:14.687Z,11.90
2023-12-02T17:42:42.952Z,13.73
2023-12-02T17:45:12.980Z,8.77
2023-12-02T17:47:42.173Z,11.37
2023-12-02T17:50:11.455Z,10.10
2023-12-02T17:52:39.555Z,9.97
2023-12-02T17:55:09.349Z,9.57
2023-12-02T17:57:38.847Z,8.57
2023-12-02T18:00:09.548Z,8.43
2023-12-02T18:02:40.540Z,8.80
2023-12-02T18:05:09.720Z,8.23
2023-12-02T18:07:37.958Z,9.10
2023-12-02T18:10:07.198Z,10.43
2023-12-02T18:12:38.556Z,8.73
2023-12-02T18:15:08.162Z,8.50
2023-12-02T18:17:36.580Z,9.93
2023-12-02T18:20:06.254Z,10.43
2023-12-02T18:22:35.029Z,13.30
2023-12-02T18:25:03.847Z,9.80
2023-12-02T18:27:32.100Z,10.53
2023-12-02T18:30:01.612Z,10.07
2023-12-02T18:32:29.803Z,11.63
2023-12-02T18:34:58.467Z,10.80
2023-12-02T18:37:26.666Z,12.70
2023-12-02T18:39:55.167Z,9.93
2023-12-02T18:42:23.449Z,10.27
2023-12-02T18:44:52.550Z,10.33
2023-12-02T18:47:22.074Z,9.73
2023-12-02T18:49:51.644Z,11.60
2023-12-02T18:52:19.998Z,10.20
2023-12-02T18:54:51.029Z,10.33
2023-12-02T18:57:19.287Z,8.90
2023-12-02T18:59:47.504Z,8.17
2023-12-02T19:02:16.060Z,9.67
2023-12-02T19:04:45.654Z,7.33
2023-12-02T19:07:16.129Z,8.00
2023-12-02T19:09:44.599Z,9.70
2023-12-02T19:12:13.766Z,7.90
2023-12-02T19:14:42.838Z,8.60
2023-12-02T19:17:12.180Z,8.00
2023-12-02T19:19:40.316Z,7.63
2023-12-02T19:22:10.076Z,8.60
2023-12-02T19:24:38.432Z,7.63
2023-12-02T19:27:07.750Z,7.90
2023-12-02T19:29:36.325Z,7.57
2023-12-02T19:32:06.875Z,7.47
2023-12-02T19:34:35.784Z,8.90
2023-12-02T19:37:04.360Z,7.93
2023-12-02T19:39:39.675Z,7.53
2023-12-02T19:42:09.746Z,6.70
2023-12-02T19:44:38.484Z,6.87
2023-12-02T19:47:06.811Z,7.93
2023-12-02T19:49:35.867Z,8.17
2023-12-02T19:52:04.593Z,8.97
2023-12-02T19:54:40.909Z,11.10
2023-12-02T19:57:10.212Z,11.33
2023-12-02T19:59:38.266Z,11.20
2023-12-02T20:02:07.087Z,10.30
2023-12-02T20:04:35.470Z,9.13
2023-12-02T20:07:03.600Z,8.83
2023-12-02T20:09:31.938Z,9.30
2023-12-02T20:12:01.391Z,7.70
2023-12-02T20:14:30.747Z,8.60
2023-12-02T20:16:58.896Z,11.43
2023-12-02T20:19:27.087Z,12.67
2023-12-02T20:21:55.196Z,10.13
2023-12-02T20:24:23.323Z,9.40
2023-12-02T20:26:52.368Z,9.97
2023-12-02T20:29:24.847Z,8.90
2023-12-02T20:31:53.291Z,9.97
2023-12-02T20:34:21.571Z,10.93
2023-12-02T20:36:50.544Z,10.53
2023-12-02T20:39:18.904Z,10.43
2023-12-02T20:41:46.937Z,12.77
2023-12-02T20:44:17.432Z,13.30
2023-12-02T20:46:48.506Z,12.90
2023-12-02T20:49:17.494Z,10.73
2023-12-02T20:51:45.913Z,9.00
2023-12-02T20:54:14.768Z,7.90
2023-12-02T20:56:42.910Z,7.60
2023-12-02T20:59:10.869Z,9.50
2023-12-02T21:01:38.862Z,7.63
2023-12-02T21:04:08.337Z,8.43
2023-12-02T21:06:36.644Z,8.93
2023-12-02T21:09:04.820Z,10.63
2023-12-02T21:11:32.853Z,9.77
2023-12-02T21:14:00.892Z,10.77
2023-12-02T21:16:28.953Z,10.03
2023-12-02T21:18:57.060Z,10.10
2023-12-02T21:21:26.683Z,6.97
2023-12-02T21:23:54.790Z,9.77
2023-12-02T21:26:22.848Z,9.53
2023-12-02T21:28:50.868Z,9.10
2023-12-02T21:31:23.694Z,9.10
2023-12-02T21:33:52.860Z,9.63
2023-12-02T21:36:20.993Z,9.20
2023-12-02T21:38:54.671Z,8.57
2023-12-02T21:41:22.825Z,8.87
2023-12-02T21:43:52.277Z,9.03
2023-12-02T21:46:24.864Z,9.37
2023-12-02T21:48:59.758Z,9.13
2023-12-02T21:51:30.976Z,10.20
2023-12-02T21:54:02.448Z,9.70
2023-12-02T21:56:43.789Z,9.80
2023-12-02T21:59:18.530Z,9.93
2023-12-02T22:01:49.294Z,11.97
2023-12-02T22:04:21.251Z,9.73
2023-12-02T22:06:51.867Z,10.57
2023-12-02T22:09:38.748Z,11.60
2023-12-02T22:12:09.721Z,10.53
2023-12-02T22:14:37.820Z,10.83
2023-12-02T22:17:08.473Z,10.53
2023-12-02T22:19:37.202Z,10.90
2023-12-02T22:22:10.041Z,11.53
2023-12-02T22:24:40.709Z,11.60
2023-12-02T22:27:13.003Z,12.67
2023-12-02T22:29:44.115Z,12.33
2023-12-02T22:32:26.492Z,12.27
2023-12-02T22:34:54.944Z,11.90
2023-12-02T22:37:23.084Z,12.00
2023-12-02T22:39:54.210Z,13.13
2023-12-02T22:42:22.419Z,13.20
2023-12-02T22:44:50.712Z,11.50
2023-12-02T22:47:19.972Z,13.77
2023-12-02T22:49:48.158Z,12.77
2023-12-02T22:52:19.320Z,12.97
2023-12-02T22:54:47.548Z,12.37
2023-12-02T22:57:17.158Z,13.73
2023-12-02T22:59:45.895Z,14.23
2023-12-02T23:02:14.136Z,12.50
2023-12-02T23:04:44.700Z,15.53
2023-12-02T23:07:56.043Z,13.80
2023-12-02T23:10:36.422Z,13.67
2023-12-02T23:13:43.635Z,13.83
2023-12-02T23:16:30.354Z,14.37
2023-12-02T23:18:58.496Z,13.63
2023-12-02T23:21:26.664Z,13.33
2023-12-02T23:23:54.841Z,14.50
2023-12-02T23:26:26.652Z,13.10
2023-12-02T23:28:57.270Z,12.63
2023-12-02T23:31:25.505Z,13.80
2023-12-02T23:33:54.505Z,14.17
2023-12-02T23:36:22.941Z,13.60
2023-12-02T23:38:51.932Z,14.30
2023-12-02T23:41:23.595Z,13.53
2023-12-02T23:43:51.929Z,14.33
2023-12-02T23:46:26.578Z,15.13
2023-12-02T23:48:55.783Z,14.63
2023-12-02T23:51:24.140Z,15.00
2023-12-02T23:53:56.655Z,14.50
2023-12-02T23:56:25.898Z,14.27
2023-12-02T23:59:04.675Z,15.10
